sensor_id;sensor_type;location;lat;lon;timestamp;temperature;humidity
21678;DHT22;11000;50.360;7.582;2023-02-28T00:00:04;2.80;99.90
21678;DHT22;11000;50.360;7.582;2023-02-28T00:02:30;2.70;99.90
21678;DHT22;11000;50.360;7.582;2023-02-28T00:04:51;2.70;99.90
21678;DHT22;11000;50.360;7.582;2023-02-28T00:07:21;2.70;99.90
21678;DHT22;11000;50.360;7.582;2023-02-28T00:09:41;2.70;99.90
21678;DHT22;11000;50.360;7.582;2023-02-28T00:12:02;2.70;99.90
21678;DHT22;11000;50.360;7.582;2023-02-28T00:14:30;2.60;99.90
21678;DHT22;11000;50.360;7.582;2023-02-28T00:16:51;2.60;99.90
21678;DHT22;11000;50.360;7.582;2023-02-28T00:19:11;2.60;99.90
21678;DHT22;11000;50.360;7.582;2023-02-28T00:21:33;2.60;99.90
21678;DHT22;11000;50.360;7.582;2023-02-28T00:23:54;2.50;99.90
21678;DHT22;11000;50.360;7.582;2023-02-28T00:26:14;2.50;99.90
21678;DHT22;11000;50.360;7.582;2023-02-28T00:28:35;2.50;99.90
21678;DHT22;11000;50.360;7.582;2023-02-28T00:30:55;2.50;99.90
21678;DHT22;11000;50.360;7.582;2023-02-28T00:33:17;2.40;99.90
21678;DHT22;11000;50.360;7.582;2023-02-28T00:35:38;2.40;99.90
21678;DHT22;11000;50.360;7.582;2023-02-28T00:37:58;2.40;99.90
21678;DHT22;11000;50.360;7.582;2023-02-28T00:40:19;2.40;99.90
21678;DHT22;11000;50.360;7.582;2023-02-28T00:42:40;2.30;99.90
21678;DHT22;11000;50.360;7.582;2023-02-28T00:45:00;2.20;99.90
21678;DHT22;11000;50.360;7.582;2023-02-28T00:47:21;2.30;99.90
21678;DHT22;11000;50.360;7.582;2023-02-28T00:49:42;2.30;99.90
21678;DHT22;11000;50.360;7.582;2023-02-28T00:52:03;2.30;99.90
21678;DHT22;11000;50.360;7.582;2023-02-28T00:54:24;2.20;99.90
21678;DHT22;11000;50.360;7.582;2023-02-28T00:56:44;2.10;99.90
21678;DHT22;11000;50.360;7.582;2023-02-28T00:59:07;2.10;99.90
21678;DHT22;11000;50.360;7.582;2023-02-28T01:01:28;2.20;99.90
21678;DHT22;11000;50.360;7.582;2023-02-28T01:03:48;2.10;99.90
21678;DHT22;11000;50.360;7.582;2023-02-28T01:06:09;2.10;99.90
21678;DHT22;11000;50.360;7.582;2023-02-28T01:08:29;2.10;99.90
21678;DHT22;11000;50.360;7.582;2023-02-28T01:10:50;2.00;99.90
21678;DHT22;11000;50.360;7.582;2023-02-28T01:13:11;2.00;99.90
21678;DHT22;11000;50.360;7.582;2023-02-28T01:15:32;2.00;99.90
21678;DHT22;11000;50.360;7.582;2023-02-28T01:17:52;1.90;99.90
21678;DHT22;11000;50.360;7.582;2023-02-28T01:20:13;2.00;99.90
21678;DHT22;11000;50.360;7.582;2023-02-28T01:22:34;1.90;99.90
21678;DHT22;11000;50.360;7.582;2023-02-28T01:24:55;1.90;99.90
21678;DHT22;11000;50.360;7.582;2023-02-28T01:27:15;1.90;99.90
21678;DHT22;11000;50.360;7.582;2023-02-28T01:29:36;1.80;99.90
21678;DHT22;11000;50.360;7.582;2023-02-28T01:31:56;1.80;99.90
21678;DHT22;11000;50.360;7.582;2023-02-28T01:34:17;1.80;99.90
21678;DHT22;11000;50.360;7.582;2023-02-28T01:36:39;1.80;99.90
21678;DHT22;11000;50.360;7.582;2023-02-28T01:39:00;1.70;99.90
21678;DHT22;11000;50.360;7.582;2023-02-28T01:41:26;1.70;99.90
21678;DHT22;11000;50.360;7.582;2023-02-28T01:46:08;1.70;99.90
21678;DHT22;11000;50.360;7.582;2023-02-28T01:48:32;1.70;99.90
21678;DHT22;11000;50.360;7.582;2023-02-28T01:50:54;1.60;99.90
21678;DHT22;11000;50.360;7.582;2023-02-28T01:53:21;1.70;99.90
21678;DHT22;11000;50.360;7.582;2023-02-28T01:55:47;1.60;99.90
21678;DHT22;11000;50.360;7.582;2023-02-28T01:58:08;1.60;99.90
21678;DHT22;11000;50.360;7.582;2023-02-28T02:00:29;1.60;99.90
21678;DHT22;11000;50.360;7.582;2023-02-28T02:02:52;1.50;99.90
21678;DHT22;11000;50.360;7.582;2023-02-28T02:05:17;1.50;99.90
21678;DHT22;11000;50.360;7.582;2023-02-28T02:07:40;1.50;99.90
21678;DHT22;11000;50.360;7.582;2023-02-28T02:15:09;1.40;99.90
21678;DHT22;11000;50.360;7.582;2023-02-28T02:17:40;1.50;99.90
21678;DHT22;11000;50.360;7.582;2023-02-28T02:23:24;1.50;99.90
21678;DHT22;11000;50.360;7.582;2023-02-28T02:26:14;1.50;99.90
21678;DHT22;11000;50.360;7.582;2023-02-28T02:31:42;1.40;99.90
21678;DHT22;11000;50.360;7.582;2023-02-28T02:34:20;1.40;99.90
21678;DHT22;11000;50.360;7.582;2023-02-28T02:37:36;1.40;99.90
21678;DHT22;11000;50.360;7.582;2023-02-28T02:39:43;1.40;99.90
21678;DHT22;11000;50.360;7.582;2023-02-28T02:42:14;1.40;99.90
21678;DHT22;11000;50.360;7.582;2023-02-28T02:44:43;1.40;99.90
21678;DHT22;11000;50.360;7.582;2023-02-28T02:47:15;1.30;99.90
21678;DHT22;11000;50.360;7.582;2023-02-28T02:49:38;1.40;99.90
21678;DHT22;11000;50.360;7.582;2023-02-28T02:52:04;1.30;99.90
21678;DHT22;11000;50.360;7.582;2023-02-28T02:54:33;1.30;99.90
21678;DHT22;11000;50.360;7.582;2023-02-28T02:56:58;1.30;99.90
21678;DHT22;11000;50.360;7.582;2023-02-28T02:59:21;1.20;99.90
21678;DHT22;11000;50.360;7.582;2023-02-28T03:01:44;1.20;99.90
21678;DHT22;11000;50.360;7.582;2023-02-28T03:04:09;1.30;99.90
21678;DHT22;11000;50.360;7.582;2023-02-28T03:06:31;1.20;99.90
21678;DHT22;11000;50.360;7.582;2023-02-28T03:08:51;1.20;99.90
21678;DHT22;11000;50.360;7.582;2023-02-28T03:11:14;1.20;99.90
21678;DHT22;11000;50.360;7.582;2023-02-28T03:16:35;1.20;99.90
21678;DHT22;11000;50.360;7.582;2023-02-28T03:19:19;1.10;99.90
21678;DHT22;11000;50.360;7.582;2023-02-28T03:27:13;1.10;99.90
21678;DHT22;11000;50.360;7.582;2023-02-28T03:29:39;1.10;99.90
21678;DHT22;11000;50.360;7.582;2023-02-28T03:32:04;1.10;99.90
21678;DHT22;11000;50.360;7.582;2023-02-28T03:34:30;1.10;99.90
21678;DHT22;11000;50.360;7.582;2023-02-28T03:36:55;1.10;99.90
21678;DHT22;11000;50.360;7.582;2023-02-28T03:39:19;1.00;99.90
21678;DHT22;11000;50.360;7.582;2023-02-28T03:41:51;1.00;99.90
21678;DHT22;11000;50.360;7.582;2023-02-28T03:44:16;0.90;99.90
21678;DHT22;11000;50.360;7.582;2023-02-28T03:46:40;0.90;99.90
21678;DHT22;11000;50.360;7.582;2023-02-28T03:49:09;0.90;99.90
21678;DHT22;11000;50.360;7.582;2023-02-28T03:51:32;0.90;99.90
21678;DHT22;11000;50.360;7.582;2023-02-28T03:53:57;0.90;99.90
21678;DHT22;11000;50.360;7.582;2023-02-28T03:56:41;0.90;99.90
21678;DHT22;11000;50.360;7.582;2023-02-28T03:59:15;0.80;99.90
21678;DHT22;11000;50.360;7.582;2023-02-28T04:01:47;0.80;99.90
21678;DHT22;11000;50.360;7.582;2023-02-28T04:04:08;0.80;99.90
21678;DHT22;11000;50.360;7.582;2023-02-28T04:06:32;0.80;99.90
21678;DHT22;11000;50.360;7.582;2023-02-28T04:08:53;0.80;99.90
21678;DHT22;11000;50.360;7.582;2023-02-28T04:11:37;0.70;99.90
21678;DHT22;11000;50.360;7.582;2023-02-28T04:13:58;0.60;99.90
21678;DHT22;11000;50.360;7.582;2023-02-28T04:16:18;0.60;99.90
21678;DHT22;11000;50.360;7.582;2023-02-28T04:18:39;0.60;99.90
21678;DHT22;11000;50.360;7.582;2023-02-28T04:21:00;0.60;99.90
21678;DHT22;11000;50.360;7.582;2023-02-28T04:23:20;0.60;99.90
21678;DHT22;11000;50.360;7.582;2023-02-28T04:25:41;0.60;99.90
21678;DHT22;11000;50.360;7.582;2023-02-28T04:28:01;0.60;99.90
21678;DHT22;11000;50.360;7.582;2023-02-28T04:30:22;0.60;99.90
21678;DHT22;11000;50.360;7.582;2023-02-28T04:32:42;0.50;99.90
21678;DHT22;11000;50.360;7.582;2023-02-28T04:35:03;0.50;99.90
21678;DHT22;11000;50.360;7.582;2023-02-28T04:37:24;0.50;99.90
21678;DHT22;11000;50.360;7.582;2023-02-28T04:39:48;0.50;99.90
21678;DHT22;11000;50.360;7.582;2023-02-28T04:42:10;0.50;99.90
21678;DHT22;11000;50.360;7.582;2023-02-28T04:44:30;0.40;99.90
21678;DHT22;11000;50.360;7.582;2023-02-28T04:46:51;0.40;99.90
21678;DHT22;11000;50.360;7.582;2023-02-28T04:49:12;0.30;99.90
21678;DHT22;11000;50.360;7.582;2023-02-28T04:51:33;0.30;99.90
21678;DHT22;11000;50.360;7.582;2023-02-28T04:53:54;0.30;99.90
21678;DHT22;11000;50.360;7.582;2023-02-28T04:56:16;0.30;99.90
21678;DHT22;11000;50.360;7.582;2023-02-28T04:58:38;0.20;99.90
21678;DHT22;11000;50.360;7.582;2023-02-28T05:01:05;0.20;99.90
21678;DHT22;11000;50.360;7.582;2023-02-28T05:03:32;0.10;99.90
21678;DHT22;11000;50.360;7.582;2023-02-28T05:05:53;0.20;99.90
21678;DHT22;11000;50.360;7.582;2023-02-28T05:08:13;0.20;99.90
21678;DHT22;11000;50.360;7.582;2023-02-28T05:10:34;0.20;99.90
21678;DHT22;11000;50.360;7.582;2023-02-28T05:12:54;0.20;99.90
21678;DHT22;11000;50.360;7.582;2023-02-28T05:15:16;0.20;99.90
21678;DHT22;11000;50.360;7.582;2023-02-28T05:17:36;0.20;99.90
21678;DHT22;11000;50.360;7.582;2023-02-28T05:19:57;0.20;99.90
21678;DHT22;11000;50.360;7.582;2023-02-28T05:22:17;0.10;99.90
21678;DHT22;11000;50.360;7.582;2023-02-28T05:24:38;0.10;99.90
21678;DHT22;11000;50.360;7.582;2023-02-28T05:26:58;0.10;99.90
21678;DHT22;11000;50.360;7.582;2023-02-28T05:29:19;0.10;99.90
21678;DHT22;11000;50.360;7.582;2023-02-28T05:31:40;0.10;99.90
21678;DHT22;11000;50.360;7.582;2023-02-28T05:34:00;0.00;99.90
21678;DHT22;11000;50.360;7.582;2023-02-28T05:36:21;0.00;99.90
21678;DHT22;11000;50.360;7.582;2023-02-28T05:38:42;-0.10;99.90
21678;DHT22;11000;50.360;7.582;2023-02-28T05:41:07;0.00;99.90
21678;DHT22;11000;50.360;7.582;2023-02-28T05:43:27;-0.10;99.90
21678;DHT22;11000;50.360;7.582;2023-02-28T05:45:49;-0.10;99.90
21678;DHT22;11000;50.360;7.582;2023-02-28T05:48:10;-0.10;99.90
21678;DHT22;11000;50.360;7.582;2023-02-28T05:50:30;-0.20;99.90
21678;DHT22;11000;50.360;7.582;2023-02-28T05:52:51;-0.20;99.90
21678;DHT22;11000;50.360;7.582;2023-02-28T05:55:12;-0.20;99.90
21678;DHT22;11000;50.360;7.582;2023-02-28T05:57:32;-0.20;99.90
21678;DHT22;11000;50.360;7.582;2023-02-28T05:59:53;-0.20;99.90
21678;DHT22;11000;50.360;7.582;2023-02-28T06:02:16;-0.30;99.90
21678;DHT22;11000;50.360;7.582;2023-02-28T06:04:36;-0.30;99.90
21678;DHT22;11000;50.360;7.582;2023-02-28T06:06:57;-0.30;99.90
21678;DHT22;11000;50.360;7.582;2023-02-28T06:09:18;-0.40;99.90
21678;DHT22;11000;50.360;7.582;2023-02-28T06:11:39;-0.40;99.90
21678;DHT22;11000;50.360;7.582;2023-02-28T06:14:01;-0.40;99.90
21678;DHT22;11000;50.360;7.582;2023-02-28T06:16:22;-0.40;99.90
21678;DHT22;11000;50.360;7.582;2023-02-28T06:18:43;-0.40;99.90
21678;DHT22;11000;50.360;7.582;2023-02-28T06:21:03;-0.50;99.90
21678;DHT22;11000;50.360;7.582;2023-02-28T06:23:24;-0.50;99.90
21678;DHT22;11000;50.360;7.582;2023-02-28T06:25:45;-0.50;99.90
21678;DHT22;11000;50.360;7.582;2023-02-28T06:28:06;-0.50;99.90
21678;DHT22;11000;50.360;7.582;2023-02-28T06:30:26;-0.40;99.90
21678;DHT22;11000;50.360;7.582;2023-02-28T06:32:50;-0.40;99.90
21678;DHT22;11000;50.360;7.582;2023-02-28T06:35:10;-0.40;99.90
21678;DHT22;11000;50.360;7.582;2023-02-28T06:37:32;-0.30;99.90
21678;DHT22;11000;50.360;7.582;2023-02-28T06:39:55;-0.40;99.90
21678;DHT22;11000;50.360;7.582;2023-02-28T06:42:16;-0.30;99.90
21678;DHT22;11000;50.360;7.582;2023-02-28T06:44:36;-0.30;99.90
21678;DHT22;11000;50.360;7.582;2023-02-28T06:46:58;-0.30;99.90
21678;DHT22;11000;50.360;7.582;2023-02-28T06:49:18;-0.20;99.90
21678;DHT22;11000;50.360;7.582;2023-02-28T06:51:41;-0.20;99.90
21678;DHT22;11000;50.360;7.582;2023-02-28T06:54:02;-0.10;99.90
21678;DHT22;11000;50.360;7.582;2023-02-28T06:56:23;0.00;99.90
21678;DHT22;11000;50.360;7.582;2023-02-28T06:58:47;0.00;99.90
21678;DHT22;11000;50.360;7.582;2023-02-28T07:01:09;0.00;99.90
21678;DHT22;11000;50.360;7.582;2023-02-28T07:03:30;0.00;99.90
21678;DHT22;11000;50.360;7.582;2023-02-28T07:05:50;-0.10;99.90
21678;DHT22;11000;50.360;7.582;2023-02-28T07:08:11;0.00;99.90
21678;DHT22;11000;50.360;7.582;2023-02-28T07:10:33;0.00;99.90
21678;DHT22;11000;50.360;7.582;2023-02-28T07:12:53;0.00;99.90
21678;DHT22;11000;50.360;7.582;2023-02-28T07:15:14;0.10;99.90
21678;DHT22;11000;50.360;7.582;2023-02-28T07:17:34;0.10;99.90
21678;DHT22;11000;50.360;7.582;2023-02-28T07:19:55;0.20;99.90
21678;DHT22;11000;50.360;7.582;2023-02-28T07:22:16;0.20;99.90
21678;DHT22;11000;50.360;7.582;2023-02-28T07:24:37;0.30;99.90
21678;DHT22;11000;50.360;7.582;2023-02-28T07:26:58;0.30;99.90
21678;DHT22;11000;50.360;7.582;2023-02-28T07:29:19;0.40;99.90
21678;DHT22;11000;50.360;7.582;2023-02-28T07:31:40;0.50;99.90
21678;DHT22;11000;50.360;7.582;2023-02-28T07:34:00;0.50;99.90
21678;DHT22;11000;50.360;7.582;2023-02-28T07:36:21;0.50;99.90
21678;DHT22;11000;50.360;7.582;2023-02-28T07:38:43;0.60;99.90
21678;DHT22;11000;50.360;7.582;2023-02-28T07:41:04;0.80;99.90
21678;DHT22;11000;50.360;7.582;2023-02-28T07:43:24;1.00;99.90
21678;DHT22;11000;50.360;7.582;2023-02-28T07:45:45;1.00;99.90
21678;DHT22;11000;50.360;7.582;2023-02-28T07:48:05;1.00;99.90
21678;DHT22;11000;50.360;7.582;2023-02-28T07:50:26;1.10;99.90
21678;DHT22;11000;50.360;7.582;2023-02-28T07:52:50;1.10;99.90
21678;DHT22;11000;50.360;7.582;2023-02-28T07:55:11;1.20;99.90
21678;DHT22;11000;50.360;7.582;2023-02-28T07:57:32;1.30;99.90
21678;DHT22;11000;50.360;7.582;2023-02-28T07:59:52;1.30;99.90
21678;DHT22;11000;50.360;7.582;2023-02-28T08:02:17;1.50;99.90
21678;DHT22;11000;50.360;7.582;2023-02-28T08:04:38;1.90;99.90
21678;DHT22;11000;50.360;7.582;2023-02-28T08:06:58;2.00;99.90
21678;DHT22;11000;50.360;7.582;2023-02-28T08:09:19;2.10;99.90
21678;DHT22;11000;50.360;7.582;2023-02-28T08:11:40;2.30;99.90
21678;DHT22;11000;50.360;7.582;2023-02-28T08:14:00;2.30;99.90
21678;DHT22;11000;50.360;7.582;2023-02-28T08:16:21;2.40;99.90
21678;DHT22;11000;50.360;7.582;2023-02-28T08:18:42;2.50;99.90
21678;DHT22;11000;50.360;7.582;2023-02-28T08:21:07;2.50;99.90
21678;DHT22;11000;50.360;7.582;2023-02-28T08:23:28;2.60;99.90
21678;DHT22;11000;50.360;7.582;2023-02-28T08:25:55;2.70;99.90
21678;DHT22;11000;50.360;7.582;2023-02-28T08:28:17;2.60;99.90
21678;DHT22;11000;50.360;7.582;2023-02-28T08:30:38;2.70;99.90
21678;DHT22;11000;50.360;7.582;2023-02-28T08:33:01;2.70;99.90
21678;DHT22;11000;50.360;7.582;2023-02-28T08:35:22;2.70;99.90
21678;DHT22;11000;50.360;7.582;2023-02-28T08:37:42;2.70;99.90
21678;DHT22;11000;50.360;7.582;2023-02-28T08:40:03;2.70;99.90
21678;DHT22;11000;50.360;7.582;2023-02-28T08:42:24;2.70;99.90
21678;DHT22;11000;50.360;7.582;2023-02-28T08:44:45;2.80;99.90
21678;DHT22;11000;50.360;7.582;2023-02-28T08:47:05;2.80;99.90
21678;DHT22;11000;50.360;7.582;2023-02-28T08:49:26;2.70;99.90
21678;DHT22;11000;50.360;7.582;2023-02-28T08:51:46;2.70;99.90
21678;DHT22;11000;50.360;7.582;2023-02-28T08:54:08;2.80;99.90
21678;DHT22;11000;50.360;7.582;2023-02-28T08:56:29;2.80;99.90
21678;DHT22;11000;50.360;7.582;2023-02-28T08:58:50;2.80;99.90
21678;DHT22;11000;50.360;7.582;2023-02-28T09:01:18;2.90;99.90
21678;DHT22;11000;50.360;7.582;2023-02-28T09:03:40;3.00;99.90
21678;DHT22;11000;50.360;7.582;2023-02-28T09:06:02;3.10;99.90
21678;DHT22;11000;50.360;7.582;2023-02-28T09:08:26;3.20;99.90
21678;DHT22;11000;50.360;7.582;2023-02-28T09:10:47;3.20;99.90
21678;DHT22;11000;50.360;7.582;2023-02-28T09:13:07;3.20;99.90
21678;DHT22;11000;50.360;7.582;2023-02-28T09:15:28;3.30;99.90
21678;DHT22;11000;50.360;7.582;2023-02-28T09:17:48;3.10;99.90
21678;DHT22;11000;50.360;7.582;2023-02-28T09:20:09;3.00;99.90
21678;DHT22;11000;50.360;7.582;2023-02-28T09:22:30;3.00;99.90
21678;DHT22;11000;50.360;7.582;2023-02-28T09:24:51;3.20;99.90
21678;DHT22;11000;50.360;7.582;2023-02-28T09:27:11;3.40;99.90
21678;DHT22;11000;50.360;7.582;2023-02-28T09:29:33;3.50;99.90
21678;DHT22;11000;50.360;7.582;2023-02-28T09:31:54;3.50;99.90
21678;DHT22;11000;50.360;7.582;2023-02-28T09:34:16;3.60;99.90
21678;DHT22;11000;50.360;7.582;2023-02-28T09:36:37;3.50;99.90
21678;DHT22;11000;50.360;7.582;2023-02-28T09:38:58;3.40;99.80
21678;DHT22;11000;50.360;7.582;2023-02-28T09:41:23;3.40;99.90
21678;DHT22;11000;50.360;7.582;2023-02-28T09:43:49;3.50;99.90
21678;DHT22;11000;50.360;7.582;2023-02-28T09:46:44;3.50;99.90
21678;DHT22;11000;50.360;7.582;2023-02-28T09:49:11;3.70;99.30
21678;DHT22;11000;50.360;7.582;2023-02-28T09:54:22;3.90;98.80
21678;DHT22;11000;50.360;7.582;2023-02-28T09:56:48;3.60;96.70
21678;DHT22;11000;50.360;7.582;2023-02-28T10:04:42;3.90;97.20
21678;DHT22;11000;50.360;7.582;2023-02-28T10:07:35;4.10;97.80
21678;DHT22;11000;50.360;7.582;2023-02-28T10:09:59;4.20;96.30
21678;DHT22;11000;50.360;7.582;2023-02-28T10:12:24;4.10;95.20
21678;DHT22;11000;50.360;7.582;2023-02-28T10:14:48;4.10;98.50
21678;DHT22;11000;50.360;7.582;2023-02-28T10:17:18;3.90;95.70
21678;DHT22;11000;50.360;7.582;2023-02-28T10:22:20;3.80;95.00
21678;DHT22;11000;50.360;7.582;2023-02-28T10:24:44;3.90;95.60
21678;DHT22;11000;50.360;7.582;2023-02-28T10:27:23;3.80;95.40
21678;DHT22;11000;50.360;7.582;2023-02-28T10:29:49;4.10;95.20
21678;DHT22;11000;50.360;7.582;2023-02-28T10:32:15;4.20;93.60
21678;DHT22;11000;50.360;7.582;2023-02-28T10:34:36;4.30;96.40
21678;DHT22;11000;50.360;7.582;2023-02-28T10:36:59;4.50;93.70
21678;DHT22;11000;50.360;7.582;2023-02-28T10:39:36;4.40;92.70
21678;DHT22;11000;50.360;7.582;2023-02-28T10:41:58;4.20;92.20
21678;DHT22;11000;50.360;7.582;2023-02-28T10:44:23;4.30;94.40
21678;DHT22;11000;50.360;7.582;2023-02-28T10:46:44;4.60;93.10
21678;DHT22;11000;50.360;7.582;2023-02-28T10:49:12;4.60;91.90
21678;DHT22;11000;50.360;7.582;2023-02-28T10:51:40;4.50;90.60
21678;DHT22;11000;50.360;7.582;2023-02-28T10:54:02;4.50;91.70
21678;DHT22;11000;50.360;7.582;2023-02-28T10:56:24;4.50;90.60
21678;DHT22;11000;50.360;7.582;2023-02-28T10:58:59;4.20;90.70
21678;DHT22;11000;50.360;7.582;2023-02-28T11:03:40;4.20;91.60
21678;DHT22;11000;50.360;7.582;2023-02-28T11:06:07;4.40;91.90
21678;DHT22;11000;50.360;7.582;2023-02-28T11:08:28;4.70;93.60
21678;DHT22;11000;50.360;7.582;2023-02-28T11:10:58;4.80;92.00
21678;DHT22;11000;50.360;7.582;2023-02-28T11:13:21;4.80;90.50
21678;DHT22;11000;50.360;7.582;2023-02-28T11:15:51;4.50;89.30
21678;DHT22;11000;50.360;7.582;2023-02-28T11:20:54;4.20;90.30
21678;DHT22;11000;50.360;7.582;2023-02-28T11:23:16;4.10;90.60
21678;DHT22;11000;50.360;7.582;2023-02-28T11:25:39;4.20;90.60
21678;DHT22;11000;50.360;7.582;2023-02-28T11:28:05;4.20;91.00
21678;DHT22;11000;50.360;7.582;2023-02-28T11:30:33;4.20;90.80
21678;DHT22;11000;50.360;7.582;2023-02-28T11:32:54;4.30;92.00
21678;DHT22;11000;50.360;7.582;2023-02-28T11:35:45;4.20;91.00
21678;DHT22;11000;50.360;7.582;2023-02-28T11:38:12;4.30;91.60
21678;DHT22;11000;50.360;7.582;2023-02-28T11:40:41;4.40;90.90
21678;DHT22;11000;50.360;7.582;2023-02-28T11:43:10;4.50;90.60
21678;DHT22;11000;50.360;7.582;2023-02-28T11:46:38;4.40;90.20
21678;DHT22;11000;50.360;7.582;2023-02-28T11:49:16;4.30;90.20
21678;DHT22;11000;50.360;7.582;2023-02-28T11:51:24;4.30;89.10
21678;DHT22;11000;50.360;7.582;2023-02-28T11:53:56;4.30;89.50
21678;DHT22;11000;50.360;7.582;2023-02-28T11:56:31;4.40;89.80
21678;DHT22;11000;50.360;7.582;2023-02-28T12:04:26;4.60;89.90
21678;DHT22;11000;50.360;7.582;2023-02-28T12:07:00;4.70;88.70
21678;DHT22;11000;50.360;7.582;2023-02-28T12:17:36;4.70;84.50
21678;DHT22;11000;50.360;7.582;2023-02-28T12:23:21;4.40;84.40
21678;DHT22;11000;50.360;7.582;2023-02-28T12:25:44;4.50;89.40
21678;DHT22;11000;50.360;7.582;2023-02-28T12:28:11;4.90;90.40
21678;DHT22;11000;50.360;7.582;2023-02-28T12:30:35;5.00;85.40
21678;DHT22;11000;50.360;7.582;2023-02-28T12:33:09;4.80;83.80
21678;DHT22;11000;50.360;7.582;2023-02-28T12:35:35;4.80;84.20
21678;DHT22;11000;50.360;7.582;2023-02-28T12:38:05;5.00;87.50
21678;DHT22;11000;50.360;7.582;2023-02-28T12:40:47;5.40;85.30
21678;DHT22;11000;50.360;7.582;2023-02-28T12:43:10;5.80;82.40
21678;DHT22;11000;50.360;7.582;2023-02-28T12:45:45;6.10;81.40
21678;DHT22;11000;50.360;7.582;2023-02-28T12:48:13;6.20;80.40
21678;DHT22;11000;50.360;7.582;2023-02-28T12:50:35;6.00;79.60
21678;DHT22;11000;50.360;7.582;2023-02-28T12:58:41;5.40;81.80
21678;DHT22;11000;50.360;7.582;2023-02-28T13:09:16;5.20;81.00
21678;DHT22;11000;50.360;7.582;2023-02-28T13:11:49;5.40;81.50
21678;DHT22;11000;50.360;7.582;2023-02-28T13:14:25;5.60;81.30
21678;DHT22;11000;50.360;7.582;2023-02-28T13:16:59;5.90;82.00
21678;DHT22;11000;50.360;7.582;2023-02-28T13:19:22;6.40;78.40
21678;DHT22;11000;50.360;7.582;2023-02-28T13:21:44;6.50;77.70
21678;DHT22;11000;50.360;7.582;2023-02-28T13:24:05;6.70;77.30
21678;DHT22;11000;50.360;7.582;2023-02-28T13:31:31;6.80;76.30
21678;DHT22;11000;50.360;7.582;2023-02-28T13:38:48;7.10;74.80
21678;DHT22;11000;50.360;7.582;2023-02-28T13:44:05;7.00;77.50
21678;DHT22;11000;50.360;7.582;2023-02-28T13:46:26;7.00;74.20
21678;DHT22;11000;50.360;7.582;2023-02-28T13:48:47;6.40;74.50
21678;DHT22;11000;50.360;7.582;2023-02-28T13:54:52;5.70;79.00
21678;DHT22;11000;50.360;7.582;2023-02-28T13:59:34;6.40;81.10
21678;DHT22;11000;50.360;7.582;2023-02-28T14:02:27;6.90;77.70
21678;DHT22;11000;50.360;7.582;2023-02-28T14:05:00;7.20;76.60
21678;DHT22;11000;50.360;7.582;2023-02-28T14:07:31;6.80;74.40
21678;DHT22;11000;50.360;7.582;2023-02-28T14:10:03;6.90;76.40
21678;DHT22;11000;50.360;7.582;2023-02-28T14:18:03;7.50;75.50
21678;DHT22;11000;50.360;7.582;2023-02-28T14:20:26;7.50;73.70
21678;DHT22;11000;50.360;7.582;2023-02-28T14:26:12;7.50;73.90
21678;DHT22;11000;50.360;7.582;2023-02-28T14:28:46;6.80;73.30
21678;DHT22;11000;50.360;7.582;2023-02-28T14:31:18;6.50;75.70
21678;DHT22;11000;50.360;7.582;2023-02-28T14:36:33;6.60;79.00
21678;DHT22;11000;50.360;7.582;2023-02-28T14:38:57;6.90;77.30
21678;DHT22;11000;50.360;7.582;2023-02-28T14:44:24;7.40;77.90
21678;DHT22;11000;50.360;7.582;2023-02-28T14:46:48;6.70;76.20
21678;DHT22;11000;50.360;7.582;2023-02-28T14:49:24;6.00;78.80
21678;DHT22;11000;50.360;7.582;2023-02-28T14:51:48;5.90;81.90
21678;DHT22;11000;50.360;7.582;2023-02-28T14:54:16;6.00;83.80
21678;DHT22;11000;50.360;7.582;2023-02-28T14:56:48;6.00;82.10
21678;DHT22;11000;50.360;7.582;2023-02-28T14:59:28;5.70;82.50
21678;DHT22;11000;50.360;7.582;2023-02-28T15:01:50;5.50;84.00
21678;DHT22;11000;50.360;7.582;2023-02-28T15:04:21;5.50;84.10
21678;DHT22;11000;50.360;7.582;2023-02-28T15:06:43;5.60;85.10
21678;DHT22;11000;50.360;7.582;2023-02-28T15:09:14;5.80;86.90
21678;DHT22;11000;50.360;7.582;2023-02-28T15:11:37;6.10;83.40
21678;DHT22;11000;50.360;7.582;2023-02-28T15:14:00;6.30;81.90
21678;DHT22;11000;50.360;7.582;2023-02-28T15:16:29;6.20;81.90
21678;DHT22;11000;50.360;7.582;2023-02-28T15:19:24;6.30;81.50
21678;DHT22;11000;50.360;7.582;2023-02-28T15:21:49;6.00;82.60
21678;DHT22;11000;50.360;7.582;2023-02-28T15:24:17;6.00;82.10
21678;DHT22;11000;50.360;7.582;2023-02-28T15:26:48;5.80;82.80
21678;DHT22;11000;50.360;7.582;2023-02-28T15:29:17;5.90;84.90
21678;DHT22;11000;50.360;7.582;2023-02-28T15:31:43;6.10;83.50
21678;DHT22;11000;50.360;7.582;2023-02-28T15:34:06;6.10;83.90
21678;DHT22;11000;50.360;7.582;2023-02-28T15:36:29;5.90;83.00
21678;DHT22;11000;50.360;7.582;2023-02-28T15:38:51;5.80;86.40
21678;DHT22;11000;50.360;7.582;2023-02-28T15:41:30;5.90;85.70
21678;DHT22;11000;50.360;7.582;2023-02-28T15:44:44;5.70;84.90
21678;DHT22;11000;50.360;7.582;2023-02-28T15:47:16;5.50;86.20
21678;DHT22;11000;50.360;7.582;2023-02-28T15:50:20;5.40;87.60
21678;DHT22;11000;50.360;7.582;2023-02-28T15:52:38;5.50;89.50
21678;DHT22;11000;50.360;7.582;2023-02-28T15:55:26;5.60;86.90
21678;DHT22;11000;50.360;7.582;2023-02-28T15:57:52;5.60;86.60
21678;DHT22;11000;50.360;7.582;2023-02-28T16:00:19;5.60;89.00
21678;DHT22;11000;50.360;7.582;2023-02-28T16:02:40;5.60;87.30
21678;DHT22;11000;50.360;7.582;2023-02-28T16:07:31;5.40;88.80
21678;DHT22;11000;50.360;7.582;2023-02-28T16:09:53;5.40;87.80
21678;DHT22;11000;50.360;7.582;2023-02-28T16:12:14;5.40;88.20
21678;DHT22;11000;50.360;7.582;2023-02-28T16:14:35;5.30;87.70
21678;DHT22;11000;50.360;7.582;2023-02-28T16:17:12;5.30;88.10
21678;DHT22;11000;50.360;7.582;2023-02-28T16:19:34;5.30;88.50
21678;DHT22;11000;50.360;7.582;2023-02-28T16:21:55;5.30;88.60
21678;DHT22;11000;50.360;7.582;2023-02-28T16:24:16;5.30;90.30
21678;DHT22;11000;50.360;7.582;2023-02-28T16:26:38;5.30;88.50
21678;DHT22;11000;50.360;7.582;2023-02-28T16:29:01;5.30;87.80
21678;DHT22;11000;50.360;7.582;2023-02-28T16:31:23;5.30;90.40
21678;DHT22;11000;50.360;7.582;2023-02-28T16:33:44;5.30;88.50
21678;DHT22;11000;50.360;7.582;2023-02-28T16:36:08;5.30;88.30
21678;DHT22;11000;50.360;7.582;2023-02-28T16:38:33;5.30;90.00
21678;DHT22;11000;50.360;7.582;2023-02-28T16:40:56;5.40;89.90
21678;DHT22;11000;50.360;7.582;2023-02-28T16:43:19;5.30;89.20
21678;DHT22;11000;50.360;7.582;2023-02-28T16:45:45;5.30;90.40
21678;DHT22;11000;50.360;7.582;2023-02-28T16:48:11;5.30;91.00
21678;DHT22;11000;50.360;7.582;2023-02-28T16:50:32;5.20;90.30
21678;DHT22;11000;50.360;7.582;2023-02-28T16:52:53;5.20;91.30
21678;DHT22;11000;50.360;7.582;2023-02-28T16:55:15;5.10;90.80
21678;DHT22;11000;50.360;7.582;2023-02-28T16:57:35;5.10;90.90
21678;DHT22;11000;50.360;7.582;2023-02-28T16:59:56;5.10;90.80
21678;DHT22;11000;50.360;7.582;2023-02-28T17:02:17;5.10;91.20
21678;DHT22;11000;50.360;7.582;2023-02-28T17:04:39;5.10;90.80
21678;DHT22;11000;50.360;7.582;2023-02-28T17:07:00;5.00;90.90
21678;DHT22;11000;50.360;7.582;2023-02-28T17:09:22;5.00;91.40
21678;DHT22;11000;50.360;7.582;2023-02-28T17:11:43;5.00;92.00